Time;durP1;ratioP1;P1;durP2;ratioP2;P2;SDS_P1;SDS_P2;PMS_P1;PMS_P2;Temp;Humidity;BMP_temperature;BMP_pressure;BME280_temperature;BME280_humidity;BME280_pressure;Samples;Min_cycle;Max_cycle;Signal;HPM_P1;HPM_P2
2022/10/04 00:01:12;;;;;;;9.15;5.55;;;;;;;;;;4914283;29;20083;-83
2022/10/04 00:03:41;;;;;;;8.85;5.28;;;;;;;;;;4916518;29;20074;-83
2022/10/04 00:06:14;;;;;;;10.15;5.22;;;;;;;;;;4933665;29;20039;-82
2022/10/04 00:08:45;;;;;;;10.40;6.10;;;;;;;;;;4932892;29;20031;-82
2022/10/04 00:11:14;;;;;;;9.77;5.68;;;;;;;;;;4922356;29;20149;-82
2022/10/04 00:13:41;;;;;;;9.15;5.45;;;;;;;;;;4929491;29;20032;-82
2022/10/04 00:16:08;;;;;;;8.00;4.80;;;;;;;;;;4913995;29;20024;-82
2022/10/04 00:18:44;;;;;;;8.07;5.65;;;;;;;;;;4916387;29;20513;-82
2022/10/04 00:21:10;;;;;;;10.32;5.32;;;;;;;;;;4933991;29;20444;-82
2022/10/04 00:23:36;;;;;;;11.00;5.40;;;;;;;;;;4922373;29;20036;-82
2022/10/04 00:26:11;;;;;;;8.82;5.47;;;;;;;;;;4926876;29;20047;-82
2022/10/04 00:28:38;;;;;;;7.38;5.13;;;;;;;;;;4919435;29;20028;-83
2022/10/04 00:31:24;;;;;;;9.27;5.57;;;;;;;;;;4933021;29;20058;-83
2022/10/04 00:33:51;;;;;;;8.70;5.53;;;;;;;;;;4932717;29;20794;-83
2022/10/04 00:36:23;;;;;;;7.35;5.35;;;;;;;;;;4930187;29;20039;-83
2022/10/04 00:39:04;;;;;;;9.32;5.40;;;;;;;;;;4932288;29;20033;-84
2022/10/04 00:41:37;;;;;;;9.00;5.53;;;;;;;;;;4932213;29;20408;-83
2022/10/04 00:44:04;;;;;;;6.93;5.93;;;;;;;;;;4930156;29;20035;-83
2022/10/04 00:46:30;;;;;;;8.82;5.70;;;;;;;;;;4932327;29;20048;-84
2022/10/04 00:49:05;;;;;;;8.07;5.30;;;;;;;;;;4932443;29;20028;-83
2022/10/04 00:51:37;;;;;;;8.85;5.18;;;;;;;;;;4930696;29;20031;-83
2022/10/04 00:54:06;;;;;;;7.32;5.30;;;;;;;;;;4931066;29;20035;-83
2022/10/04 00:56:50;;;;;;;9.30;5.53;;;;;;;;;;4931601;29;20392;-83
2022/10/04 00:59:35;;;;;;;9.27;5.57;;;;;;;;;;4931397;29;20024;-83
2022/10/04 01:02:21;;;;;;;8.13;6.28;;;;;;;;;;4931649;29;20488;-83
2022/10/04 01:04:50;;;;;;;11.55;6.63;;;;;;;;;;4931078;29;20473;-82
2022/10/04 01:07:21;;;;;;;6.95;5.78;;;;;;;;;;4931879;29;20043;-82
2022/10/04 01:09:55;;;;;;;9.32;5.40;;;;;;;;;;4932090;29;20207;-82
2022/10/04 01:12:39;;;;;;;9.15;6.30;;;;;;;;;;4932444;29;20091;-83
2022/10/04 01:15:05;;;;;;;10.55;6.05;;;;;;;;;;4930893;29;20031;-83
2022/10/04 01:17:31;;;;;;;12.77;6.18;;;;;;;;;;4932130;29;20489;-83
2022/10/04 01:19:57;;;;;;;8.65;6.93;;;;;;;;;;4930747;29;20123;-84
2022/10/04 01:22:43;;;;;;;9.57;6.22;;;;;;;;;;4932283;29;20023;-84
2022/10/04 01:25:09;;;;;;;8.95;6.38;;;;;;;;;;4932366;29;20042;-83
2022/10/04 01:27:39;;;;;;;11.30;7.00;;;;;;;;;;4932206;29;20115;-83
2022/10/04 01:30:08;;;;;;;8.82;7.00;;;;;;;;;;4932323;29;20040;-83
2022/10/04 01:32:34;;;;;;;10.18;6.65;;;;;;;;;;4931185;29;20035;-83
2022/10/04 01:35:00;;;;;;;10.68;6.55;;;;;;;;;;4932016;29;20040;-84
2022/10/04 01:37:27;;;;;;;9.88;6.95;;;;;;;;;;4931964;29;20031;-82
2022/10/04 01:39:53;;;;;;;13.98;6.22;;;;;;;;;;4929688;29;20056;-81
2022/10/04 01:42:38;;;;;;;15.18;6.55;;;;;;;;;;4930934;29;20039;-82
2022/10/04 01:45:09;;;;;;;9.05;6.70;;;;;;;;;;4929339;29;20028;-82
2022/10/04 01:47:38;;;;;;;8.95;6.80;;;;;;;;;;4931904;29;20035;-83
2022/10/04 01:50:10;;;;;;;12.00;6.45;;;;;;;;;;4930461;29;20055;-82
2022/10/04 01:52:42;;;;;;;12.20;6.50;;;;;;;;;;4930869;29;20566;-83
2022/10/04 01:55:12;;;;;;;13.32;6.47;;;;;;;;;;4930624;29;20087;-82
2022/10/04 01:57:43;;;;;;;12.68;7.20;;;;;;;;;;4931591;29;20060;-82
2022/10/04 02:00:11;;;;;;;11.52;7.20;;;;;;;;;;4931872;29;20314;-82
2022/10/04 02:02:57;;;;;;;10.65;5.90;;;;;;;;;;4931758;29;20500;-83
2022/10/04 02:05:28;;;;;;;10.40;6.40;;;;;;;;;;4931618;29;20070;-82
2022/10/04 02:07:56;;;;;;;9.95;7.68;;;;;;;;;;4931637;29;20056;-82
2022/10/04 02:10:23;;;;;;;9.53;7.17;;;;;;;;;;4931996;29;20078;-83
2022/10/04 02:12:53;;;;;;;13.40;7.45;;;;;;;;;;4932804;29;20032;-82
2022/10/04 02:15:20;;;;;;;11.23;6.93;;;;;;;;;;4926341;29;20087;-82
2022/10/04 02:17:47;;;;;;;14.63;7.75;;;;;;;;;;4932313;29;20059;-83
2022/10/04 02:20:15;;;;;;;9.05;6.97;;;;;;;;;;4930285;29;20027;-83
2022/10/04 02:22:42;;;;;;;;;;;;;;;;;;4931371;29;20036;-82
2022/10/04 02:25:08;;;;;;;8.88;7.13;;;;;;;;;;4932406;29;19914;-83
2022/10/04 02:27:34;;;;;;;13.00;7.63;;;;;;;;;;4930815;29;20028;-82
2022/10/04 02:30:01;;;;;;;12.25;8.27;;;;;;;;;;4931429;29;20059;-83
2022/10/04 02:35:14;;;;;;;14.80;7.45;;;;;;;;;;4935086;29;20054;-83
2022/10/04 02:37:40;;;;;;;12.63;8.00;;;;;;;;;;4926812;29;20028;-81
2022/10/04 02:40:12;;;;;;;17.55;8.30;;;;;;;;;;4930711;29;20039;-84
2022/10/04 02:42:38;;;;;;;10.82;7.75;;;;;;;;;;4915808;29;20055;-83
2022/10/04 02:45:27;;;;;;;10.48;7.72;;;;;;;;;;4923027;29;20024;-84
2022/10/04 02:47:52;;;;;;;;;;;;;;;;;;4935457;29;20031;-83
2022/10/04 02:50:25;;;;;;;13.55;8.77;;;;;;;;;;4934950;29;19937;-83
2022/10/04 02:52:59;;;;;;;17.63;9.80;;;;;;;;;;4935225;29;20029;-83
2022/10/04 02:55:27;;;;;;;12.32;9.68;;;;;;;;;;4931177;29;20029;-83
2022/10/04 02:57:53;;;;;;;;;;;;;;;;;;4921863;29;20063;-83
2022/10/04 03:00:20;;;;;;;15.18;8.63;;;;;;;;;;4932720;29;20350;-83
2022/10/04 03:03:16;;;;;;;9.75;7.85;;;;;;;;;;4929628;29;20055;-83
2022/10/04 03:05:44;;;;;;;17.83;8.93;;;;;;;;;;4924124;29;20039;-83
2022/10/04 03:08:11;;;;;;;14.10;8.27;;;;;;;;;;4933593;29;20035;-83
2022/10/04 03:10:37;;;;;;;17.30;8.82;;;;;;;;;;4933312;29;20111;-83
2022/10/04 03:13:03;;;;;;;11.38;7.97;;;;;;;;;;4934482;29;20035;-83
2022/10/04 03:15:30;;;;;;;12.50;8.68;;;;;;;;;;4934577;29;20027;-84
2022/10/04 03:17:56;;;;;;;10.70;8.43;;;;;;;;;;4934403;29;20032;-83
2022/10/04 03:20:22;;;;;;;12.77;8.45;;;;;;;;;;4935098;29;20059;-83
2022/10/04 03:22:49;;;;;;;13.85;9.48;;;;;;;;;;4933137;29;20079;-83
2022/10/04 03:25:18;;;;;;;12.68;9.30;;;;;;;;;;4934272;29;20028;-83
2022/10/04 03:27:46;;;;;;;17.50;8.85;;;;;;;;;;4934235;29;20035;-83
2022/10/04 03:30:13;;;;;;;16.00;8.75;;;;;;;;;;4925412;29;20396;-83
2022/10/04 03:32:39;;;;;;;13.30;8.68;;;;;;;;;;4917227;29;20479;-86
2022/10/04 03:35:07;;;;;;;17.77;9.15;;;;;;;;;;4915998;29;20131;-86
2022/10/04 03:37:35;;;;;;;13.13;9.05;;;;;;;;;;4913450;29;20055;-85
2022/10/04 03:40:02;;;;;;;14.75;8.88;;;;;;;;;;4915215;29;20400;-82
2022/10/04 03:42:29;;;;;;;11.98;8.88;;;;;;;;;;4925225;29;20035;-82
2022/10/04 03:44:56;;;;;;;11.23;8.43;;;;;;;;;;4933928;29;20028;-82
2022/10/04 03:47:30;;;;;;;14.17;9.40;;;;;;;;;;4933338;29;20051;-83
2022/10/04 03:49:58;;;;;;;15.18;8.70;;;;;;;;;;4933985;29;20023;-85
2022/10/04 03:52:24;;;;;;;;;;;;;;;;;;4934537;29;20437;-84
2022/10/04 03:54:51;;;;;;;18.13;9.27;;;;;;;;;;4933051;29;19914;-84
2022/10/04 03:57:17;;;;;;;11.38;7.97;;;;;;;;;;4932570;29;20034;-85
2022/10/04 03:59:44;;;;;;;13.88;9.18;;;;;;;;;;4933670;29;20038;-86
2022/10/04 04:02:15;;;;;;;15.73;9.15;;;;;;;;;;4933480;29;20024;-85
2022/10/04 04:04:41;;;;;;;13.65;8.75;;;;;;;;;;4932578;29;20027;-85
2022/10/04 04:07:07;;;;;;;21.13;10.32;;;;;;;;;;4932571;29;20107;-84
2022/10/04 04:09:36;;;;;;;19.50;9.52;;;;;;;;;;4930747;29;20036;-84
2022/10/04 04:12:04;;;;;;;15.85;9.30;;;;;;;;;;4914490;29;20400;-87
2022/10/04 04:14:30;;;;;;;14.43;9.73;;;;;;;;;;4925525;29;20023;-86
2022/10/04 04:17:13;;;;;;;15.77;9.90;;;;;;;;;;4933133;29;20087;-85
2022/10/04 04:19:39;;;;;;;17.60;9.77;;;;;;;;;;4932041;29;20148;-86
2022/10/04 04:22:05;;;;;;;17.33;9.40;;;;;;;;;;4930938;29;20024;-85
2022/10/04 04:24:31;;;;;;;17.55;9.20;;;;;;;;;;4915552;29;21270;-85
2022/10/04 04:26:59;;;;;;;14.75;9.57;;;;;;;;;;4924811;29;20040;-84
2022/10/04 04:29:43;;;;;;;11.48;8.93;;;;;;;;;;4935496;29;20070;-85
2022/10/04 04:32:17;;;;;;;15.68;9.85;;;;;;;;;;4932005;29;20542;-88
2022/10/04 04:34:56;;;;;;;21.90;10.63;;;;;;;;;;4927925;29;20046;-84
2022/10/04 04:37:23;;;;;;;20.55;9.75;;;;;;;;;;4928147;29;20031;-85
2022/10/04 04:39:53;;;;;;;15.40;9.13;;;;;;;;;;4925951;29;20047;-85
2022/10/04 04:42:22;;;;;;;16.35;10.00;;;;;;;;;;4930094;29;20396;-85
2022/10/04 04:44:56;;;;;;;17.08;9.68;;;;;;;;;;4928174;29;20046;-85
2022/10/04 04:47:25;;;;;;;12.52;9.15;;;;;;;;;;4927651;29;20047;-85
2022/10/04 04:49:51;;;;;;;14.60;9.45;;;;;;;;;;4932647;29;20028;-85
2022/10/04 04:52:18;;;;;;;16.73;9.43;;;;;;;;;;4929364;29;20028;-88
2022/10/04 04:54:46;;;;;;;14.27;9.73;;;;;;;;;;4928732;29;20087;-85
2022/10/04 04:57:14;;;;;;;20.10;10.48;;;;;;;;;;4925518;29;20284;-86
2022/10/04 04:59:43;;;;;;;17.33;10.18;;;;;;;;;;4921528;29;20043;-88
2022/10/04 05:02:28;;;;;;;19.13;10.48;;;;;;;;;;4930076;29;20016;-86
2022/10/04 05:05:13;;;;;;;19.88;11.05;;;;;;;;;;4932534;29;20039;-87
2022/10/04 05:07:42;;;;;;;18.90;10.25;;;;;;;;;;4937284;29;20575;-85
2022/10/04 05:10:28;;;;;;;17.63;11.57;;;;;;;;;;4924684;29;20524;-86
2022/10/04 05:12:54;;;;;;;22.67;11.80;;;;;;;;;;4917090;29;20032;-87
2022/10/04 05:15:21;;;;;;;30.20;13.93;;;;;;;;;;4931304;29;20039;-87
2022/10/04 05:17:47;;;;;;;18.25;12.73;;;;;;;;;;4928421;29;20111;-87
2022/10/04 05:20:14;;;;;;;22.85;12.15;;;;;;;;;;4932290;29;20028;-84
2022/10/04 05:22:43;;;;;;;24.40;13.30;;;;;;;;;;4931011;29;20024;-86
2022/10/04 05:25:14;;;;;;;21.10;12.98;;;;;;;;;;4923419;29;20578;-85
2022/10/04 05:27:43;;;;;;;23.95;12.77;;;;;;;;;;4926981;29;20408;-86
2022/10/04 05:30:15;;;;;;;23.85;13.27;;;;;;;;;;4912989;29;20109;-85
2022/10/04 05:32:54;;;;;;;24.70;12.90;;;;;;;;;;4913149;29;20039;-85
2022/10/04 05:35:19;;;;;;;;;;;;;;;;;;4915107;29;20246;-85
2022/10/04 05:37:59;;;;;;;20.70;13.10;;;;;;;;;;4927354;29;19910;-84
2022/10/04 05:40:38;;;;;;;25.27;13.38;;;;;;;;;;4930086;29;20382;-87
2022/10/04 05:43:04;;;;;;;;;;;;;;;;;;4930813;29;20039;-85
2022/10/04 05:45:31;;;;;;;25.88;13.15;;;;;;;;;;4930804;29;19918;-85
2022/10/04 05:47:58;;;;;;;22.63;12.15;;;;;;;;;;4932573;29;20480;-86
2022/10/04 05:50:33;;;;;;;21.77;13.07;;;;;;;;;;4930066;29;20111;-85
2022/10/04 05:53:09;;;;;;;24.30;13.88;;;;;;;;;;4930380;29;20027;-85
2022/10/04 05:55:49;;;;;;;25.70;12.65;;;;;;;;;;4925147;29;20032;-86
2022/10/04 05:58:25;;;;;;;22.42;12.90;;;;;;;;;;4924580;29;20027;-86
2022/10/04 06:01:01;;;;;;;25.13;13.70;;;;;;;;;;4917571;29;20660;-86
2022/10/04 06:03:37;;;;;;;26.83;14.82;;;;;;;;;;4914515;29;20039;-86
2022/10/04 06:06:17;;;;;;;25.40;13.40;;;;;;;;;;4927522;29;20036;-84
2022/10/04 06:08:52;;;;;;;22.65;13.27;;;;;;;;;;4934239;29;20032;-85
2022/10/04 06:11:24;;;;;;;22.35;12.32;;;;;;;;;;4933129;29;20123;-84
2022/10/04 06:13:59;;;;;;;29.02;12.68;;;;;;;;;;4930077;29;20099;-84
2022/10/04 06:16:44;;;;;;;19.65;9.93;;;;;;;;;;4916544;29;20032;-86
2022/10/04 06:19:13;;;;;;;25.77;10.73;;;;;;;;;;4929213;29;20031;-84
2022/10/04 06:21:45;;;;;;;15.20;9.75;;;;;;;;;;4934879;29;20043;-85
2022/10/04 06:24:16;;;;;;;12.57;8.57;;;;;;;;;;4924232;29;20085;-85
2022/10/04 06:26:42;;;;;;;16.45;9.63;;;;;;;;;;4929028;29;20035;-85
2022/10/04 06:29:11;;;;;;;16.98;9.10;;;;;;;;;;4933916;29;20036;-84
2022/10/04 06:31:37;;;;;;;16.15;9.68;;;;;;;;;;4933496;29;20034;-85
2022/10/04 06:34:16;;;;;;;19.50;10.52;;;;;;;;;;4930743;29;20420;-84
2022/10/04 06:36:45;;;;;;;13.35;9.63;;;;;;;;;;4920892;29;20024;-84
2022/10/04 06:39:25;;;;;;;14.95;10.38;;;;;;;;;;4923260;29;20083;-84
2022/10/04 06:42:11;;;;;;;17.92;10.65;;;;;;;;;;4932342;29;20043;-86
2022/10/04 06:44:56;;;;;;;18.05;10.07;;;;;;;;;;4939350;29;20504;-88
2022/10/04 06:47:46;;;;;;;18.20;10.00;;;;;;;;;;4944641;29;20032;-93
2022/10/04 06:50:27;;;;;;;15.60;9.48;;;;;;;;;;4939377;29;20032;-89
2022/10/04 06:53:07;;;;;;;18.42;8.80;;;;;;;;;;4939867;29;20118;-92
2022/10/04 06:55:36;;;;;;;17.00;9.13;;;;;;;;;;4948213;29;20039;-93
2022/10/04 06:58:09;;;;;;;13.98;9.27;;;;;;;;;;4934405;29;20028;-96
2022/10/04 07:00:50;;;;;;;15.93;9.40;;;;;;;;;;4931773;29;20092;-88
2022/10/04 07:03:22;;;;;;;14.50;9.77;;;;;;;;;;4931225;29;20020;-91
2022/10/04 07:05:53;;;;;;;14.88;8.85;;;;;;;;;;4927963;29;20035;-91
2022/10/04 07:08:35;;;;;;;13.50;9.10;;;;;;;;;;4927122;29;20027;-91
2022/10/04 07:11:10;;;;;;;18.92;10.23;;;;;;;;;;4921337;29;20032;-92
2022/10/04 07:13:43;;;;;;;13.50;9.43;;;;;;;;;;4924110;29;20028;-90
2022/10/04 07:16:27;;;;;;;22.02;9.85;;;;;;;;;;4922042;29;20036;-90
2022/10/04 07:19:11;;;;;;;16.60;10.23;;;;;;;;;;4930016;29;20028;-89
2022/10/04 07:21:42;;;;;;;16.10;9.07;;;;;;;;;;4929544;29;20034;-92
2022/10/04 07:24:11;;;;;;;15.30;8.27;;;;;;;;;;4930113;29;20103;-88
2022/10/04 07:26:48;;;;;;;14.75;9.23;;;;;;;;;;4926937;29;20122;-90
2022/10/04 07:29:40;;;;;;;17.75;9.55;;;;;;;;;;4924925;29;20035;-89
2022/10/04 07:32:11;;;;;;;15.43;9.07;;;;;;;;;;4921553;29;20044;-88
2022/10/04 07:34:46;;;;;;;17.30;9.10;;;;;;;;;;4927999;29;20400;-88
2022/10/04 07:37:13;;;;;;;16.30;8.00;;;;;;;;;;4928508;29;20437;-92
2022/10/04 07:39:45;;;;;;;15.02;7.45;;;;;;;;;;4928812;29;20036;-90
2022/10/04 07:42:17;;;;;;;18.42;7.90;;;;;;;;;;4933738;29;20047;-89
2022/10/04 07:44:47;;;;;;;14.05;6.90;;;;;;;;;;4941040;29;20039;-87
2022/10/04 07:47:19;;;;;;;18.48;6.95;;;;;;;;;;4939632;29;20042;-88
2022/10/04 07:49:47;;;;;;;14.18;6.45;;;;;;;;;;4937973;29;20034;-88
2022/10/04 07:52:13;;;;;;;;;;;;;;;;;;4934334;29;20031;-93
2022/10/04 07:54:42;;;;;;;18.75;6.40;;;;;;;;;;4921737;29;20398;-91
2022/10/04 07:57:08;;;;;;;15.68;5.57;;;;;;;;;;4925413;29;20039;-90
2022/10/04 07:59:37;;;;;;;16.08;5.15;;;;;;;;;;4931296;29;20039;-91
2022/10/04 08:02:22;;;;;;;14.88;5.10;;;;;;;;;;4931344;29;20042;-88
2022/10/04 08:05:04;;;;;;;14.52;4.30;;;;;;;;;;4926081;29;20030;-90
2022/10/04 08:07:50;;;;;;;11.43;3.67;;;;;;;;;;4926327;29;20495;-91
2022/10/04 08:10:32;;;;;;;6.63;3.65;;;;;;;;;;4932374;29;20027;-91
2022/10/04 08:13:17;;;;;;;6.90;3.55;;;;;;;;;;4925893;29;20043;-89
2022/10/04 08:15:44;;;;;;;8.10;3.20;;;;;;;;;;4917372;29;20075;-90
2022/10/04 08:18:10;;;;;;;4.57;2.60;;;;;;;;;;4915850;29;20484;-90
2022/10/04 08:20:43;;;;;;;8.50;2.58;;;;;;;;;;4933603;29;20031;-89
2022/10/04 08:23:25;;;;;;;7.93;2.47;;;;;;;;;;4931970;28;20114;-91
2022/10/04 08:25:51;;;;;;;26.55;3.08;;;;;;;;;;4931407;29;20046;-88
2022/10/04 08:31:20;;;;;;;6.95;2.05;;;;;;;;;;4932761;29;20051;-89
2022/10/04 08:33:52;;;;;;;4.35;2.03;;;;;;;;;;4932783;29;20027;-88
2022/10/04 08:36:34;;;;;;;4.13;1.70;;;;;;;;;;4929775;29;20032;-92
2022/10/04 08:39:00;;;;;;;4.38;1.52;;;;;;;;;;4931849;29;20482;-88
2022/10/04 08:41:35;;;;;;;3.03;1.80;;;;;;;;;;4932516;29;20075;-92
2022/10/04 08:44:22;;;;;;;8.98;2.00;;;;;;;;;;4930849;29;20122;-90
2022/10/04 08:46:58;;;;;;;7.35;2.00;;;;;;;;;;4922054;29;20048;-91
2022/10/04 08:49:40;;;;;;;2.70;1.85;;;;;;;;;;4926415;29;20489;-91
2022/10/04 08:52:36;;;;;;;2.58;1.73;;;;;;;;;;4923304;29;20035;-89
2022/10/04 08:55:05;;;;;;;3.00;1.70;;;;;;;;;;4933617;29;20384;-90
2022/10/04 08:57:31;;;;;;;5.78;2.00;;;;;;;;;;4921626;29;20044;-91
2022/10/04 09:00:04;;;;;;;2.17;1.60;;;;;;;;;;4922423;29;20200;-89
2022/10/04 09:02:49;;;;;;;5.22;2.00;;;;;;;;;;4928949;29;20036;-90
2022/10/04 09:05:18;;;;;;;4.22;1.88;;;;;;;;;;4928915;29;20023;-88
2022/10/04 09:08:14;;;;;;;3.97;1.67;;;;;;;;;;4914543;29;20036;-91
2022/10/04 09:11:09;;;;;;;7.50;1.70;;;;;;;;;;4920517;29;20067;-90
2022/10/04 09:13:51;;;;;;;16.80;2.10;;;;;;;;;;4923619;29;20051;-88
2022/10/04 09:16:18;;;;;;;59.88;3.42;;;;;;;;;;4924961;29;20054;-90
2022/10/04 09:18:58;;;;;;;25.67;1.90;;;;;;;;;;4922271;29;20118;-89
2022/10/04 09:21:49;;;;;;;9.52;1.63;;;;;;;;;;4923454;29;20055;-89
2022/10/04 09:24:34;;;;;;;5.18;1.52;;;;;;;;;;4922467;29;20043;-89
2022/10/04 09:27:00;;;;;;;6.63;1.55;;;;;;;;;;4929399;29;20047;-88
2022/10/04 09:29:38;;;;;;;9.07;1.60;;;;;;;;;;4930359;29;20024;-88
2022/10/04 09:32:04;;;;;;;5.95;1.77;;;;;;;;;;4929682;29;20122;-88
2022/10/04 09:34:49;;;;;;;4.50;1.67;;;;;;;;;;4927741;29;20183;-90
2022/10/04 09:37:29;;;;;;;3.03;1.63;;;;;;;;;;4919928;29;20058;-89
2022/10/04 09:39:57;;;;;;;5.90;1.95;;;;;;;;;;4911971;29;20032;-88
2022/10/04 09:42:23;;;;;;;9.98;1.92;;;;;;;;;;4912817;29;20035;-90
2022/10/04 09:45:08;;;;;;;4.03;1.38;;;;;;;;;;4930760;29;20039;-88
2022/10/04 09:47:44;;;;;;;8.38;1.63;;;;;;;;;;4930941;29;20035;-88
2022/10/04 09:50:16;;;;;;;4.22;1.67;;;;;;;;;;4927375;29;20070;-90
2022/10/04 09:53:02;;;;;;;4.32;1.60;;;;;;;;;;4929937;29;20043;-89
2022/10/04 09:55:47;;;;;;;3.25;1.50;;;;;;;;;;4929009;29;20069;-88
2022/10/04 09:58:28;;;;;;;1.63;1.52;;;;;;;;;;4929451;29;20035;-89
2022/10/04 10:01:14;;;;;;;4.90;1.70;;;;;;;;;;4929679;29;20034;-87
2022/10/04 10:03:49;;;;;;;3.53;1.65;;;;;;;;;;4931973;29;20019;-88
2022/10/04 10:06:27;;;;;;;3.28;1.60;;;;;;;;;;4922298;29;20040;-88
2022/10/04 10:09:09;;;;;;;4.03;1.58;;;;;;;;;;4931021;29;20032;-87
2022/10/04 10:14:38;;;;;;;3.40;1.67;;;;;;;;;;4931169;29;20112;-89
2022/10/04 10:17:14;;;;;;;2.03;1.30;;;;;;;;;;4931393;29;20028;-88
2022/10/04 10:20:00;;;;;;;3.97;1.30;;;;;;;;;;4929729;29;20036;-87
2022/10/04 10:22:27;;;;;;;2.08;1.10;;;;;;;;;;4936481;29;20036;-87
2022/10/04 10:25:06;;;;;;;3.00;1.10;;;;;;;;;;4933560;29;20039;-87
2022/10/04 10:27:44;;;;;;;1.67;0.93;;;;;;;;;;4927920;29;20044;-87
2022/10/04 10:30:30;;;;;;;3.05;1.33;;;;;;;;;;4927196;29;20032;-87
2022/10/04 10:33:14;;;;;;;3.88;1.10;;;;;;;;;;4916260;29;20086;-87
2022/10/04 10:35:43;;;;;;;2.85;1.10;;;;;;;;;;4915509;29;20032;-87
2022/10/04 10:38:30;;;;;;;2.17;1.20;;;;;;;;;;4923184;29;20027;-87
2022/10/04 10:40:59;;;;;;;2.50;1.10;;;;;;;;;;4927331;29;20408;-88
2022/10/04 10:43:45;;;;;;;2.00;0.98;;;;;;;;;;4928143;29;20055;-91
2022/10/04 10:46:22;;;;;;;1.83;1.20;;;;;;;;;;4924249;29;20028;-88
2022/10/04 10:48:48;;;;;;;1.38;0.90;;;;;;;;;;4911780;29;20422;-91
2022/10/04 10:51:16;;;;;;;3.17;1.13;;;;;;;;;;4924262;29;20024;-91
2022/10/04 10:54:04;;;;;;;0.93;0.70;;;;;;;;;;4935496;29;20023;-90
2022/10/04 10:56:51;;;;;;;2.22;1.20;;;;;;;;;;4916687;29;20044;-90
2022/10/04 10:59:36;;;;;;;2.42;1.27;;;;;;;;;;4929222;29;20082;-91
2022/10/04 11:02:26;;;;;;;1.63;0.80;;;;;;;;;;4916225;29;20492;-87
2022/10/04 11:05:07;;;;;;;4.68;1.02;;;;;;;;;;4880606;29;20032;-87
2022/10/04 11:07:53;;;;;;;3.03;1.10;;;;;;;;;;4915248;29;20493;-87
2022/10/04 11:10:37;;;;;;;1.33;0.88;;;;;;;;;;4934939;29;20396;-87
2022/10/04 11:13:06;;;;;;;2.40;1.00;;;;;;;;;;4933048;29;20036;-88
2022/10/04 11:15:39;;;;;;;3.17;1.00;;;;;;;;;;4934065;29;20038;-87
2022/10/04 11:18:24;;;;;;;1.48;0.82;;;;;;;;;;4934935;29;20393;-87
2022/10/04 11:21:24;;;;;;;2.47;0.82;;;;;;;;;;4933721;29;20036;-87
2022/10/04 11:24:12;;;;;;;1.67;0.82;;;;;;;;;;4877630;29;20099;-87
2022/10/04 11:26:45;;;;;;;2.47;0.60;;;;;;;;;;4916379;29;20032;-87
2022/10/04 11:29:29;;;;;;;1.13;0.73;;;;;;;;;;4914542;29;20060;-88
2022/10/04 11:32:01;;;;;;;0.65;0.55;;;;;;;;;;4923478;29;20116;-86
2022/10/04 11:34:27;;;;;;;0.80;0.80;;;;;;;;;;4933055;29;20126;-87
2022/10/04 11:37:01;;;;;;;2.50;0.90;;;;;;;;;;4933212;29;20115;-88
2022/10/04 11:39:40;;;;;;;3.30;0.80;;;;;;;;;;4933081;29;20115;-87
2022/10/04 11:42:19;;;;;;;4.75;0.75;;;;;;;;;;4932943;29;20479;-87
2022/10/04 11:45:04;;;;;;;0.80;0.68;;;;;;;;;;4934491;29;20059;-87
2022/10/04 11:47:55;;;;;;;3.10;0.73;;;;;;;;;;4934238;29;20481;-87
2022/10/04 11:50:21;;;;;;;2.78;0.80;;;;;;;;;;4934291;29;20493;-87
2022/10/04 11:52:50;;;;;;;1.63;0.70;;;;;;;;;;4932209;29;20071;-87
2022/10/04 11:55:31;;;;;;;2.97;0.80;;;;;;;;;;4934269;29;20401;-87
2022/10/04 11:58:09;;;;;;;3.95;1.10;;;;;;;;;;4934359;29;20027;-88
2022/10/04 12:00:54;;;;;;;0.93;0.80;;;;;;;;;;4934151;29;20074;-88
2022/10/04 12:03:20;;;;;;;3.13;0.80;;;;;;;;;;4933906;29;20515;-87
2022/10/04 12:06:13;;;;;;;1.50;0.90;;;;;;;;;;4933816;29;20027;-87
2022/10/04 12:08:54;;;;;;;4.15;0.90;;;;;;;;;;4934932;29;20039;-87
2022/10/04 12:11:20;;;;;;;30.92;2.25;;;;;;;;;;4931388;29;20095;-87
2022/10/04 12:14:02;;;;;;;7.22;1.33;;;;;;;;;;4931896;29;20027;-88
2022/10/04 12:16:28;;;;;;;2.10;1.02;;;;;;;;;;4932476;29;20027;-87
2022/10/04 12:19:20;;;;;;;2.53;1.30;;;;;;;;;;4932732;29;20032;-87
2022/10/04 12:21:58;;;;;;;2.90;1.20;;;;;;;;;;4900291;29;20408;-87
2022/10/04 12:24:32;;;;;;;4.20;1.20;;;;;;;;;;4932006;29;20024;-88
2022/10/04 12:26:59;;;;;;;4.53;1.20;;;;;;;;;;4930559;29;20058;-87
2022/10/04 12:29:44;;;;;;;1.23;1.10;;;;;;;;;;4932335;29;20484;-86
2022/10/04 12:32:19;;;;;;;1.23;1.05;;;;;;;;;;4931604;29;20153;-87
2022/10/04 12:34:47;;;;;;;2.58;1.20;;;;;;;;;;4932902;29;20040;-88
2022/10/04 12:37:32;;;;;;;1.80;1.30;;;;;;;;;;4925547;29;20072;-89
2022/10/04 12:40:14;;;;;;;1.92;1.42;;;;;;;;;;4913372;29;20028;-87
2022/10/04 12:42:57;;;;;;;6.85;1.20;;;;;;;;;;4928056;29;20039;-88
2022/10/04 12:45:35;;;;;;;1.30;1.10;;;;;;;;;;4931978;29;20381;-88
2022/10/04 12:48:10;;;;;;;1.30;1.20;;;;;;;;;;4932227;29;20084;-86
2022/10/04 12:50:45;;;;;;;7.63;1.98;;;;;;;;;;4927330;29;20034;-87
2022/10/04 12:53:35;;;;;;;5.05;1.60;;;;;;;;;;4931346;29;20031;-90
2022/10/04 12:56:04;;;;;;;4.07;1.50;;;;;;;;;;4932879;29;20046;-88
2022/10/04 12:58:31;;;;;;;4.43;1.65;;;;;;;;;;4933156;29;20032;-87
2022/10/04 13:01:04;;;;;;;4.78;1.65;;;;;;;;;;4940751;29;20039;-87
2022/10/04 13:03:39;;;;;;;10.63;1.40;;;;;;;;;;4941542;29;20020;-87
2022/10/04 13:06:20;;;;;;;5.82;1.60;;;;;;;;;;4942185;29;20043;-86
2022/10/04 13:08:56;;;;;;;1.88;1.30;;;;;;;;;;4930901;29;20437;-88
2022/10/04 13:11:41;;;;;;;4.10;1.40;;;;;;;;;;4914158;29;20043;-86
2022/10/04 13:14:27;;;;;;;2.45;1.52;;;;;;;;;;4912121;29;20272;-87
2022/10/04 13:17:02;;;;;;;4.47;1.30;;;;;;;;;;4929147;29;20023;-87
2022/10/04 13:19:38;;;;;;;7.35;1.70;;;;;;;;;;4929870;29;20535;-87
2022/10/04 13:22:09;;;;;;;1.95;1.52;;;;;;;;;;4930855;29;20027;-87
2022/10/04 13:24:54;;;;;;;2.17;1.30;;;;;;;;;;4932575;29;20032;-87
2022/10/04 13:27:33;;;;;;;2.63;1.42;;;;;;;;;;4931006;29;20131;-86
2022/10/04 13:30:19;;;;;;;4.05;1.73;;;;;;;;;;4931934;29;20016;-88
2022/10/04 13:32:57;;;;;;;3.85;1.20;;;;;;;;;;4933130;29;20507;-88
2022/10/04 13:35:33;;;;;;;3.33;1.33;;;;;;;;;;4931292;29;20114;-87
2022/10/04 13:38:05;;;;;;;0.98;0.98;;;;;;;;;;4931020;29;20031;-88
2022/10/04 13:40:54;;;;;;;4.43;1.60;;;;;;;;;;4931537;29;20086;-88
2022/10/04 13:43:26;;;;;;;2.58;1.50;;;;;;;;;;4931279;29;20507;-88
2022/10/04 13:45:52;;;;;;;4.13;1.42;;;;;;;;;;4932243;29;20063;-87
2022/10/04 13:48:47;;;;;;;5.38;1.70;;;;;;;;;;4933268;29;20068;-87
2022/10/04 13:51:26;;;;;;;2.85;1.60;;;;;;;;;;4929334;29;20035;-86
2022/10/04 13:56:50;;;;;;;4.57;1.60;;;;;;;;;;4932869;29;20047;-87
2022/10/04 13:59:32;;;;;;;2.93;1.30;;;;;;;;;;4931817;29;20024;-88
2022/10/04 14:02:17;;;;;;;2.60;1.60;;;;;;;;;;4930896;29;20098;-87
2022/10/04 14:05:01;;;;;;;4.53;1.38;;;;;;;;;;4930839;29;20032;-87
2022/10/04 14:07:30;;;;;;;11.63;1.30;;;;;;;;;;4932006;29;20039;-87
2022/10/04 14:10:14;;;;;;;2.38;1.20;;;;;;;;;;4930047;29;20056;-87
2022/10/04 14:12:55;;;;;;;3.03;1.15;;;;;;;;;;4930709;29;20174;-87
2022/10/04 14:15:24;;;;;;;4.57;1.30;;;;;;;;;;4932063;29;20106;-87
2022/10/04 14:18:09;;;;;;;3.50;1.30;;;;;;;;;;4931074;29;20067;-89
2022/10/04 14:20:54;;;;;;;2.25;1.20;;;;;;;;;;4929371;29;20032;-88
2022/10/04 14:23:23;;;;;;;2.95;1.25;;;;;;;;;;4931331;29;20026;-88
2022/10/04 14:25:52;;;;;;;2.30;1.17;;;;;;;;;;4932568;29;20392;-87
2022/10/04 14:28:44;;;;;;;3.22;1.15;;;;;;;;;;4936026;29;20057;-87
2022/10/04 14:31:35;;;;;;;1.92;1.00;;;;;;;;;;4933084;29;20412;-88
2022/10/04 14:34:05;;;;;;;15.55;1.65;;;;;;;;;;4935431;29;20035;-88
2022/10/04 14:36:51;;;;;;;2.20;1.23;;;;;;;;;;4934296;29;20031;-87
2022/10/04 14:39:17;;;;;;;1.38;1.27;;;;;;;;;;4935007;29;20059;-88
2022/10/04 14:42:02;;;;;;;4.82;1.23;;;;;;;;;;4933701;29;20027;-87
2022/10/04 14:44:50;;;;;;;3.58;1.13;;;;;;;;;;4934321;29;20427;-88
2022/10/04 14:47:25;;;;;;;3.47;1.30;;;;;;;;;;4934195;29;20487;-89
2022/10/04 14:50:18;;;;;;;5.30;1.42;;;;;;;;;;4935430;29;20031;-87
2022/10/04 14:52:44;;;;;;;5.88;1.50;;;;;;;;;;4927746;29;20408;-88
2022/10/04 14:55:25;;;;;;;5.45;1.60;;;;;;;;;;4934428;29;20034;-87
2022/10/04 14:58:01;;;;;;;3.20;1.40;;;;;;;;;;4933870;29;20035;-88
2022/10/04 15:00:54;;;;;;;2.05;1.35;;;;;;;;;;4933900;29;20035;-88
2022/10/04 15:03:31;;;;;;;3.40;1.20;;;;;;;;;;4935960;29;20031;-88
2022/10/04 15:06:18;;;;;;;6.18;1.48;;;;;;;;;;4933674;29;20102;-88
2022/10/04 15:08:47;;;;;;;3.67;1.30;;;;;;;;;;4895991;29;20048;-88
2022/10/04 15:11:32;;;;;;;4.60;1.40;;;;;;;;;;4914569;29;20292;-87
2022/10/04 15:14:00;;;;;;;2.80;1.30;;;;;;;;;;4914515;29;20047;-88
2022/10/04 15:16:29;;;;;;;4.78;1.20;;;;;;;;;;4915857;29;20393;-88
2022/10/04 15:18:59;;;;;;;5.90;1.45;;;;;;;;;;4931776;29;20040;-87
2022/10/04 15:21:29;;;;;;;5.80;1.42;;;;;;;;;;4934874;29;20028;-87
2022/10/04 15:23:59;;;;;;;4.18;1.48;;;;;;;;;;4933910;29;20384;-90
2022/10/04 15:26:31;;;;;;;4.03;1.15;;;;;;;;;;4934437;29;20412;-89
2022/10/04 15:28:58;;;;;;;4.55;1.20;;;;;;;;;;4934738;29;20028;-89
2022/10/04 15:31:37;;;;;;;10.38;2.40;;;;;;;;;;4933894;29;20024;-88
2022/10/04 15:34:03;;;;;;;3.58;1.67;;;;;;;;;;4935650;29;20040;-92